sensor_id;sensor_type;location;lat;lon;timestamp;pressure;altitude;pressure_sealevel;temperature;humidity
61697;BME280;47610;52.252;20.922;2023-02-08T00:03:33;102914.66;;;-0.03;100.00
61697;BME280;47610;52.252;20.922;2023-02-08T00:08:38;102920.80;;;-0.05;100.00
61697;BME280;47610;52.252;20.922;2023-02-08T00:13:43;102927.63;;;-0.07;100.00
61697;BME280;47610;52.252;20.922;2023-02-08T00:18:47;102928.55;;;-0.09;100.00
61697;BME280;47610;52.252;20.922;2023-02-08T00:23:52;102926.87;;;-0.10;100.00
61697;BME280;47610;52.252;20.922;2023-02-08T00:28:57;102931.52;;;-0.08;100.00
61697;BME280;47610;52.252;20.922;2023-02-08T00:34:01;102928.06;;;-0.07;100.00
61697;BME280;47610;52.252;20.922;2023-02-08T00:39:04;102928.80;;;-0.06;100.00
61697;BME280;47610;52.252;20.922;2023-02-08T00:44:09;102926.58;;;-0.05;100.00
61697;BME280;47610;52.252;20.922;2023-02-08T00:49:12;102928.92;;;-0.07;100.00
61697;BME280;47610;52.252;20.922;2023-02-08T00:54:17;102935.05;;;-0.09;100.00
61697;BME280;47610;52.252;20.922;2023-02-08T00:59:24;102937.38;;;-0.10;100.00
61697;BME280;47610;52.252;20.922;2023-02-08T01:04:28;102936.08;;;-0.10;100.00
61697;BME280;47610;52.252;20.922;2023-02-08T01:09:40;102939.25;;;-0.13;100.00
61697;BME280;47610;52.252;20.922;2023-02-08T01:14:46;102942.72;;;-0.13;100.00
61697;BME280;47610;52.252;20.922;2023-02-08T01:19:49;102938.52;;;-0.15;100.00
61697;BME280;47610;52.252;20.922;2023-02-08T01:24:56;102938.44;;;-0.16;100.00
61697;BME280;47610;52.252;20.922;2023-02-08T01:29:59;102938.38;;;-0.19;100.00
61697;BME280;47610;52.252;20.922;2023-02-08T01:35:05;102940.86;;;-0.23;100.00
61697;BME280;47610;52.252;20.922;2023-02-08T01:40:14;102940.50;;;-0.23;100.00
61697;BME280;47610;52.252;20.922;2023-02-08T01:45:29;102943.45;;;-0.24;100.00
61697;BME280;47610;52.252;20.922;2023-02-08T01:50:39;102945.02;;;-0.23;100.00
61697;BME280;47610;52.252;20.922;2023-02-08T01:55:50;102942.25;;;-0.23;100.00
61697;BME280;47610;52.252;20.922;2023-02-08T02:00:56;102937.88;;;-0.20;100.00
61697;BME280;47610;52.252;20.922;2023-02-08T02:06:02;102942.41;;;-0.18;100.00
61697;BME280;47610;52.252;20.922;2023-02-08T02:20:01;102949.33;;;-0.25;100.00
61697;BME280;47610;52.252;20.922;2023-02-08T02:25:24;102953.54;;;-0.29;100.00
61697;BME280;47610;52.252;20.922;2023-02-08T02:30:50;102953.17;;;-0.33;100.00
61697;BME280;47610;52.252;20.922;2023-02-08T02:36:04;102960.98;;;-0.33;100.00
61697;BME280;47610;52.252;20.922;2023-02-08T02:41:18;102971.88;;;-0.36;100.00
61697;BME280;47610;52.252;20.922;2023-02-08T02:46:34;102970.33;;;-0.39;100.00
61697;BME280;47610;52.252;20.922;2023-02-08T02:51:49;102966.00;;;-0.39;100.00
61697;BME280;47610;52.252;20.922;2023-02-08T02:57:01;102980.14;;;-0.40;100.00
61697;BME280;47610;52.252;20.922;2023-02-08T03:02:07;102982.14;;;-0.42;100.00
61697;BME280;47610;52.252;20.922;2023-02-08T03:07:17;102982.06;;;-0.45;100.00
61697;BME280;47610;52.252;20.922;2023-02-08T03:12:38;102978.98;;;-0.47;100.00
61697;BME280;47610;52.252;20.922;2023-02-08T03:18:01;102976.44;;;-0.47;100.00
61697;BME280;47610;52.252;20.922;2023-02-08T03:23:11;102988.41;;;-0.46;100.00
61697;BME280;47610;52.252;20.922;2023-02-08T03:28:22;102986.64;;;-0.44;100.00
61697;BME280;47610;52.252;20.922;2023-02-08T03:33:33;102988.81;;;-0.44;100.00
61697;BME280;47610;52.252;20.922;2023-02-08T03:38:42;102993.09;;;-0.43;100.00
61697;BME280;47610;52.252;20.922;2023-02-08T03:43:51;102995.54;;;-0.44;100.00
61697;BME280;47610;52.252;20.922;2023-02-08T03:49:01;103000.66;;;-0.45;100.00
61697;BME280;47610;52.252;20.922;2023-02-08T03:54:16;102998.89;;;-0.48;100.00
61697;BME280;47610;52.252;20.922;2023-02-08T03:59:23;102998.23;;;-0.46;100.00
61697;BME280;47610;52.252;20.922;2023-02-08T04:04:34;102999.41;;;-0.38;100.00
61697;BME280;47610;52.252;20.922;2023-02-08T04:09:40;103004.73;;;-0.29;100.00
61697;BME280;47610;52.252;20.922;2023-02-08T04:14:42;103007.00;;;-0.22;100.00
61697;BME280;47610;52.252;20.922;2023-02-08T04:19:46;103005.58;;;-0.20;100.00
61697;BME280;47610;52.252;20.922;2023-02-08T04:24:50;103007.39;;;-0.20;100.00
61697;BME280;47610;52.252;20.922;2023-02-08T04:29:54;103007.00;;;-0.24;100.00
61697;BME280;47610;52.252;20.922;2023-02-08T04:39:36;103011.12;;;-0.29;100.00
61697;BME280;47610;52.252;20.922;2023-02-08T04:44:41;103012.34;;;-0.36;100.00
61697;BME280;47610;52.252;20.922;2023-02-08T04:49:45;103016.48;;;-0.41;100.00
61697;BME280;47610;52.252;20.922;2023-02-08T04:54:49;103014.22;;;-0.44;100.00
61697;BME280;47610;52.252;20.922;2023-02-08T04:59:54;103013.96;;;-0.47;100.00
61697;BME280;47610;52.252;20.922;2023-02-08T05:04:55;103014.69;;;-0.49;100.00
61697;BME280;47610;52.252;20.922;2023-02-08T05:09:59;103017.42;;;-0.51;100.00
61697;BME280;47610;52.252;20.922;2023-02-08T05:15:06;103024.03;;;-0.52;100.00
61697;BME280;47610;52.252;20.922;2023-02-08T05:20:14;103028.15;;;-0.54;100.00
61697;BME280;47610;52.252;20.922;2023-02-08T05:25:19;103033.20;;;-0.54;100.00
61697;BME280;47610;52.252;20.922;2023-02-08T05:30:22;103036.55;;;-0.55;100.00
61697;BME280;47610;52.252;20.922;2023-02-08T05:35:25;103047.23;;;-0.52;100.00
61697;BME280;47610;52.252;20.922;2023-02-08T05:40:29;103054.20;;;-0.49;100.00
61697;BME280;47610;52.252;20.922;2023-02-08T05:45:33;103060.35;;;-0.47;100.00
61697;BME280;47610;52.252;20.922;2023-02-08T05:50:37;103057.50;;;-0.45;100.00
61697;BME280;47610;52.252;20.922;2023-02-08T05:55:45;103066.04;;;-0.42;100.00
61697;BME280;47610;52.252;20.922;2023-02-08T06:00:51;103073.77;;;-0.39;100.00
61697;BME280;47610;52.252;20.922;2023-02-08T06:06:02;103078.25;;;-0.37;100.00
61697;BME280;47610;52.252;20.922;2023-02-08T06:11:08;103089.80;;;-0.33;100.00
61697;BME280;47610;52.252;20.922;2023-02-08T06:16:12;103093.70;;;-0.29;100.00
61697;BME280;47610;52.252;20.922;2023-02-08T06:21:19;103092.42;;;-0.23;100.00
61697;BME280;47610;52.252;20.922;2023-02-08T06:26:22;103095.10;;;-0.16;100.00
61697;BME280;47610;52.252;20.922;2023-02-08T06:31:27;103098.79;;;-0.11;100.00
61697;BME280;47610;52.252;20.922;2023-02-08T06:36:32;103097.38;;;-0.05;100.00
61697;BME280;47610;52.252;20.922;2023-02-08T06:41:36;103103.46;;;-0.03;100.00
61697;BME280;47610;52.252;20.922;2023-02-08T06:46:42;103108.57;;;0.01;100.00
61697;BME280;47610;52.252;20.922;2023-02-08T06:59:28;103123.10;;;0.14;100.00
61697;BME280;47610;52.252;20.922;2023-02-08T07:04:32;103128.45;;;0.18;100.00
61697;BME280;47610;52.252;20.922;2023-02-08T07:09:37;103135.75;;;0.19;100.00
61697;BME280;47610;52.252;20.922;2023-02-08T07:14:43;103146.67;;;0.23;100.00
61697;BME280;47610;52.252;20.922;2023-02-08T07:19:48;103157.13;;;0.27;100.00
61697;BME280;47610;52.252;20.922;2023-02-08T07:24:51;103159.27;;;0.31;100.00
61697;BME280;47610;52.252;20.922;2023-02-08T07:29:56;103159.11;;;0.29;100.00
61697;BME280;47610;52.252;20.922;2023-02-08T07:35:02;103154.54;;;0.16;100.00
61697;BME280;47610;52.252;20.922;2023-02-08T07:40:12;103156.31;;;0.08;100.00
61697;BME280;47610;52.252;20.922;2023-02-08T07:45:17;103155.13;;;0.01;100.00
61697;BME280;47610;52.252;20.922;2023-02-08T07:50:24;103153.06;;;-0.00;100.00
61697;BME280;47610;52.252;20.922;2023-02-08T07:55:28;103153.07;;;0.08;100.00
61697;BME280;47610;52.252;20.922;2023-02-08T08:00:33;103155.58;;;0.18;100.00
61697;BME280;47610;52.252;20.922;2023-02-08T08:05:40;103153.48;;;0.28;100.00
61697;BME280;47610;52.252;20.922;2023-02-08T08:10:46;103155.10;;;0.37;100.00
61697;BME280;47610;52.252;20.922;2023-02-08T08:15:50;103161.79;;;0.47;100.00
61697;BME280;47610;52.252;20.922;2023-02-08T08:20:55;103163.16;;;0.58;100.00
61697;BME280;47610;52.252;20.922;2023-02-08T08:25:59;103165.19;;;0.65;100.00
61697;BME280;47610;52.252;20.922;2023-02-08T08:31:11;103166.16;;;0.58;100.00
61697;BME280;47610;52.252;20.922;2023-02-08T08:36:15;103167.64;;;0.60;100.00
61697;BME280;47610;52.252;20.922;2023-02-08T08:41:20;103170.70;;;0.68;100.00
61697;BME280;47610;52.252;20.922;2023-02-08T08:46:25;103172.30;;;0.66;100.00
61697;BME280;47610;52.252;20.922;2023-02-08T08:51:31;103172.81;;;0.67;100.00
61697;BME280;47610;52.252;20.922;2023-02-08T08:56:35;103181.71;;;0.68;100.00
61697;BME280;47610;52.252;20.922;2023-02-08T09:01:40;103188.98;;;0.64;100.00
61697;BME280;47610;52.252;20.922;2023-02-08T09:06:43;103188.45;;;0.68;100.00
61697;BME280;47610;52.252;20.922;2023-02-08T09:18:46;103183.89;;;0.97;100.00
61697;BME280;47610;52.252;20.922;2023-02-08T09:23:51;103188.48;;;1.08;100.00
61697;BME280;47610;52.252;20.922;2023-02-08T09:28:57;103190.54;;;1.17;100.00
61697;BME280;47610;52.252;20.922;2023-02-08T09:34:08;103193.20;;;1.19;100.00
61697;BME280;47610;52.252;20.922;2023-02-08T09:39:15;103195.47;;;1.34;100.00
61697;BME280;47610;52.252;20.922;2023-02-08T09:44:25;103196.87;;;1.52;100.00
61697;BME280;47610;52.252;20.922;2023-02-08T09:49:41;103200.24;;;1.76;100.00
61697;BME280;47610;52.252;20.922;2023-02-08T09:54:53;103191.17;;;1.86;100.00
61697;BME280;47610;52.252;20.922;2023-02-08T10:00:01;103193.75;;;1.85;100.00
61697;BME280;47610;52.252;20.922;2023-02-08T10:05:11;103197.36;;;1.84;100.00
61697;BME280;47610;52.252;20.922;2023-02-08T10:10:23;103195.36;;;1.84;100.00
61697;BME280;47610;52.252;20.922;2023-02-08T10:15:48;103199.42;;;1.89;100.00
61697;BME280;47610;52.252;20.922;2023-02-08T10:21:09;103196.42;;;1.90;100.00
61697;BME280;47610;52.252;20.922;2023-02-08T10:26:22;103189.64;;;1.91;100.00
61697;BME280;47610;52.252;20.922;2023-02-08T10:31:40;103196.70;;;1.90;100.00
61697;BME280;47610;52.252;20.922;2023-02-08T10:36:49;103199.48;;;1.86;100.00
61697;BME280;47610;52.252;20.922;2023-02-08T10:42:00;103193.27;;;1.87;100.00
61697;BME280;47610;52.252;20.922;2023-02-08T10:47:13;103192.11;;;1.95;100.00
61697;BME280;47610;52.252;20.922;2023-02-08T10:52:21;103186.02;;;2.02;100.00
61697;BME280;47610;52.252;20.922;2023-02-08T10:57:28;103176.67;;;1.95;100.00
61697;BME280;47610;52.252;20.922;2023-02-08T11:02:38;103177.33;;;1.94;100.00
61697;BME280;47610;52.252;20.922;2023-02-08T11:07:43;103172.33;;;1.88;100.00
61697;BME280;47610;52.252;20.922;2023-02-08T11:12:59;103169.25;;;1.79;100.00
61697;BME280;47610;52.252;20.922;2023-02-08T11:18:18;103165.05;;;1.74;100.00
61697;BME280;47610;52.252;20.922;2023-02-08T11:23:27;103170.17;;;1.73;100.00
61697;BME280;47610;52.252;20.922;2023-02-08T11:28:30;103168.31;;;1.62;100.00
61697;BME280;47610;52.252;20.922;2023-02-08T11:39:02;103172.79;;;1.65;100.00
61697;BME280;47610;52.252;20.922;2023-02-08T11:44:21;103168.16;;;1.79;100.00
61697;BME280;47610;52.252;20.922;2023-02-08T11:49:36;103163.42;;;1.98;100.00
61697;BME280;47610;52.252;20.922;2023-02-08T11:54:42;103160.86;;;2.09;100.00
61697;BME280;47610;52.252;20.922;2023-02-08T11:59:46;103160.42;;;2.17;100.00
61697;BME280;47610;52.252;20.922;2023-02-08T12:04:50;103158.24;;;2.32;100.00
61697;BME280;47610;52.252;20.922;2023-02-08T12:10:28;103160.02;;;2.56;100.00
61697;BME280;47610;52.252;20.922;2023-02-08T12:15:45;103160.37;;;2.63;100.00
61697;BME280;47610;52.252;20.922;2023-02-08T12:21:00;103153.73;;;2.55;100.00
61697;BME280;47610;52.252;20.922;2023-02-08T12:26:17;103160.55;;;2.47;100.00
61697;BME280;47610;52.252;20.922;2023-02-08T12:31:30;103164.91;;;2.32;100.00
61697;BME280;47610;52.252;20.922;2023-02-08T12:36:51;103155.75;;;2.28;100.00
61697;BME280;47610;52.252;20.922;2023-02-08T12:42:17;103149.17;;;2.57;100.00
61697;BME280;47610;52.252;20.922;2023-02-08T12:47:41;103141.26;;;2.85;100.00
61697;BME280;47610;52.252;20.922;2023-02-08T12:52:51;103138.83;;;3.26;100.00
61697;BME280;47610;52.252;20.922;2023-02-08T12:58:03;103136.04;;;3.39;96.58
61697;BME280;47610;52.252;20.922;2023-02-08T13:03:25;103126.27;;;3.37;97.68
61697;BME280;47610;52.252;20.922;2023-02-08T13:08:38;103119.83;;;3.41;98.10
61697;BME280;47610;52.252;20.922;2023-02-08T13:13:47;103115.98;;;3.54;98.50
61697;BME280;47610;52.252;20.922;2023-02-08T13:19:05;103119.09;;;3.78;98.46
61697;BME280;47610;52.252;20.922;2023-02-08T13:24:18;103112.16;;;3.86;96.05
61697;BME280;47610;52.252;20.922;2023-02-08T13:29:32;103108.92;;;3.81;91.10
61697;BME280;47610;52.252;20.922;2023-02-08T13:34:41;103101.33;;;3.72;91.08
61697;BME280;47610;52.252;20.922;2023-02-08T13:39:50;103092.27;;;3.56;92.38
61697;BME280;47610;52.252;20.922;2023-02-08T13:45:02;103098.69;;;3.40;93.28
61697;BME280;47610;52.252;20.922;2023-02-08T13:59:39;103095.46;;;2.43;91.18
61697;BME280;47610;52.252;20.922;2023-02-08T14:04:43;103100.81;;;2.24;93.55
61697;BME280;47610;52.252;20.922;2023-02-08T14:10:03;103098.28;;;2.13;94.87
61697;BME280;47610;52.252;20.922;2023-02-08T14:15:33;103097.03;;;1.99;96.24
61697;BME280;47610;52.252;20.922;2023-02-08T14:20:40;103089.35;;;1.76;97.14
61697;BME280;47610;52.252;20.922;2023-02-08T14:25:48;103093.71;;;1.53;98.80
61697;BME280;47610;52.252;20.922;2023-02-08T14:30:56;103099.52;;;1.40;100.00
61697;BME280;47610;52.252;20.922;2023-02-08T14:36:04;103103.06;;;1.29;100.00
61697;BME280;47610;52.252;20.922;2023-02-08T14:41:11;103099.36;;;1.17;100.00
61697;BME280;47610;52.252;20.922;2023-02-08T14:46:46;103094.05;;;0.95;100.00
61697;BME280;47610;52.252;20.922;2023-02-08T14:51:55;103091.65;;;0.71;100.00
61697;BME280;47610;52.252;20.922;2023-02-08T14:57:05;103093.91;;;0.52;100.00
61697;BME280;47610;52.252;20.922;2023-02-08T15:02:21;103089.13;;;0.40;100.00
61697;BME280;47610;52.252;20.922;2023-02-08T15:07:33;103090.81;;;0.29;100.00
61697;BME280;47610;52.252;20.922;2023-02-08T15:12:39;103090.15;;;0.17;100.00
61697;BME280;47610;52.252;20.922;2023-02-08T15:17:46;103096.16;;;0.04;100.00
61697;BME280;47610;52.252;20.922;2023-02-08T15:23:02;103091.28;;;-0.10;100.00
61697;BME280;47610;52.252;20.922;2023-02-08T15:28:20;103087.49;;;-0.24;100.00
61697;BME280;47610;52.252;20.922;2023-02-08T15:33:24;103084.40;;;-0.38;100.00
61697;BME280;47610;52.252;20.922;2023-02-08T15:38:29;103075.79;;;-0.50;100.00
61697;BME280;47610;52.252;20.922;2023-02-08T15:43:37;103072.83;;;-0.64;100.00
61697;BME280;47610;52.252;20.922;2023-02-08T15:48:43;103065.73;;;-0.75;100.00
61697;BME280;47610;52.252;20.922;2023-02-08T15:53:50;103054.44;;;-0.86;100.00
61697;BME280;47610;52.252;20.922;2023-02-08T15:58:56;103052.20;;;-0.96;100.00
61697;BME280;47610;52.252;20.922;2023-02-08T16:04:05;103044.27;;;-1.08;100.00
61697;BME280;47610;52.252;20.922;2023-02-08T16:09:17;103048.67;;;-1.14;100.00
61697;BME280;47610;52.252;20.922;2023-02-08T16:19:37;103045.36;;;-1.25;100.00
61697;BME280;47610;52.252;20.922;2023-02-08T16:24:52;103043.64;;;-1.34;100.00
61697;BME280;47610;52.252;20.922;2023-02-08T16:29:57;103031.67;;;-1.48;100.00
61697;BME280;47610;52.252;20.922;2023-02-08T16:35:13;103035.88;;;-1.48;100.00
61697;BME280;47610;52.252;20.922;2023-02-08T16:40:46;103037.38;;;-1.56;100.00
61697;BME280;47610;52.252;20.922;2023-02-08T16:46:18;103032.66;;;-1.64;100.00
61697;BME280;47610;52.252;20.922;2023-02-08T16:51:28;103026.13;;;-1.71;100.00
61697;BME280;47610;52.252;20.922;2023-02-08T16:56:39;103019.96;;;-1.78;100.00
61697;BME280;47610;52.252;20.922;2023-02-08T17:01:46;103018.48;;;-1.81;100.00
61697;BME280;47610;52.252;20.922;2023-02-08T17:06:51;103017.58;;;-1.79;100.00
61697;BME280;47610;52.252;20.922;2023-02-08T17:11:55;103013.52;;;-1.78;100.00
61697;BME280;47610;52.252;20.922;2023-02-08T17:16:59;103007.06;;;-1.80;100.00
61697;BME280;47610;52.252;20.922;2023-02-08T17:22:03;103001.61;;;-1.84;100.00
61697;BME280;47610;52.252;20.922;2023-02-08T17:27:13;103005.15;;;-1.92;100.00
61697;BME280;47610;52.252;20.922;2023-02-08T17:32:17;103007.16;;;-1.96;100.00
61697;BME280;47610;52.252;20.922;2023-02-08T17:37:20;103003.35;;;-2.03;100.00
61697;BME280;47610;52.252;20.922;2023-02-08T17:42:24;102999.13;;;-2.06;100.00
61697;BME280;47610;52.252;20.922;2023-02-08T17:47:27;102998.39;;;-2.14;100.00
61697;BME280;47610;52.252;20.922;2023-02-08T17:52:31;103006.69;;;-2.17;100.00
61697;BME280;47610;52.252;20.922;2023-02-08T17:57:37;103004.64;;;-2.25;100.00
61697;BME280;47610;52.252;20.922;2023-02-08T18:02:45;103013.66;;;-2.29;100.00
61697;BME280;47610;52.252;20.922;2023-02-08T18:07:52;103012.95;;;-2.33;100.00
61697;BME280;47610;52.252;20.922;2023-02-08T18:12:57;103012.85;;;-2.37;100.00
61697;BME280;47610;52.252;20.922;2023-02-08T18:18:01;103010.23;;;-2.37;100.00
61697;BME280;47610;52.252;20.922;2023-02-08T18:23:06;103011.67;;;-2.36;100.00
61697;BME280;47610;52.252;20.922;2023-02-08T18:28:08;103007.82;;;-2.37;100.00
61697;BME280;47610;52.252;20.922;2023-02-08T18:38:31;102995.23;;;-2.41;100.00
61697;BME280;47610;52.252;20.922;2023-02-08T18:43:36;102993.11;;;-2.48;100.00
61697;BME280;47610;52.252;20.922;2023-02-08T18:48:40;102995.13;;;-2.53;100.00
61697;BME280;47610;52.252;20.922;2023-02-08T18:53:48;102998.02;;;-2.58;100.00
61697;BME280;47610;52.252;20.922;2023-02-08T18:58:54;103000.35;;;-2.62;100.00
61697;BME280;47610;52.252;20.922;2023-02-08T19:03:59;103005.13;;;-2.68;100.00
61697;BME280;47610;52.252;20.922;2023-02-08T19:09:06;103005.77;;;-2.73;100.00
61697;BME280;47610;52.252;20.922;2023-02-08T19:14:13;103003.20;;;-2.79;100.00
61697;BME280;47610;52.252;20.922;2023-02-08T19:19:16;102995.61;;;-2.81;100.00
61697;BME280;47610;52.252;20.922;2023-02-08T19:24:21;102990.23;;;-2.79;100.00
61697;BME280;47610;52.252;20.922;2023-02-08T19:29:25;102983.47;;;-2.78;100.00
61697;BME280;47610;52.252;20.922;2023-02-08T19:34:31;102981.34;;;-2.78;100.00
61697;BME280;47610;52.252;20.922;2023-02-08T19:39:35;102969.83;;;-2.80;100.00
61697;BME280;47610;52.252;20.922;2023-02-08T19:44:38;102964.85;;;-2.81;100.00
61697;BME280;47610;52.252;20.922;2023-02-08T19:49:42;102965.02;;;-2.83;100.00
61697;BME280;47610;52.252;20.922;2023-02-08T19:54:46;102960.00;;;-2.88;100.00
61697;BME280;47610;52.252;20.922;2023-02-08T19:59:53;102960.38;;;-2.95;100.00
61697;BME280;47610;52.252;20.922;2023-02-08T20:04:57;102962.78;;;-3.02;100.00
61697;BME280;47610;52.252;20.922;2023-02-08T20:10:01;102956.64;;;-3.02;100.00
61697;BME280;47610;52.252;20.922;2023-02-08T20:15:11;102951.79;;;-3.04;100.00
61697;BME280;47610;52.252;20.922;2023-02-08T20:20:16;102961.70;;;-3.07;100.00
61697;BME280;47610;52.252;20.922;2023-02-08T20:25:20;102944.37;;;-3.17;100.00
61697;BME280;47610;52.252;20.922;2023-02-08T20:30:26;102940.10;;;-3.13;100.00
61697;BME280;47610;52.252;20.922;2023-02-08T20:35:31;102937.02;;;-3.15;100.00
61697;BME280;47610;52.252;20.922;2023-02-08T20:40:38;102935.40;;;-3.19;100.00
61697;BME280;47610;52.252;20.922;2023-02-08T20:45:42;102930.92;;;-3.21;100.00
61697;BME280;47610;52.252;20.922;2023-02-08T20:58:30;102941.48;;;-3.26;100.00
61697;BME280;47610;52.252;20.922;2023-02-08T21:03:32;102932.92;;;-3.31;100.00
61697;BME280;47610;52.252;20.922;2023-02-08T21:08:35;102935.13;;;-3.34;100.00
61697;BME280;47610;52.252;20.922;2023-02-08T21:13:41;102937.99;;;-3.38;100.00
61697;BME280;47610;52.252;20.922;2023-02-08T21:18:44;102930.20;;;-3.42;100.00
61697;BME280;47610;52.252;20.922;2023-02-08T21:23:48;102931.91;;;-3.43;100.00
61697;BME280;47610;52.252;20.922;2023-02-08T21:28:56;102933.13;;;-3.45;100.00
61697;BME280;47610;52.252;20.922;2023-02-08T21:34:00;102932.91;;;-3.49;100.00
61697;BME280;47610;52.252;20.922;2023-02-08T21:39:06;102932.86;;;-3.53;100.00
61697;BME280;47610;52.252;20.922;2023-02-08T21:44:12;102924.83;;;-3.56;100.00
61697;BME280;47610;52.252;20.922;2023-02-08T21:49:15;102926.85;;;-3.61;100.00
61697;BME280;47610;52.252;20.922;2023-02-08T21:54:22;102916.88;;;-3.69;100.00
61697;BME280;47610;52.252;20.922;2023-02-08T21:59:26;102917.81;;;-3.76;100.00
61697;BME280;47610;52.252;20.922;2023-02-08T22:04:30;102911.87;;;-3.85;100.00
61697;BME280;47610;52.252;20.922;2023-02-08T22:09:35;102898.80;;;-3.92;100.00
61697;BME280;47610;52.252;20.922;2023-02-08T22:14:38;102895.23;;;-3.98;100.00
61697;BME280;47610;52.252;20.922;2023-02-08T22:19:43;102886.86;;;-4.03;100.00
61697;BME280;47610;52.252;20.922;2023-02-08T22:24:46;102893.38;;;-4.08;100.00
61697;BME280;47610;52.252;20.922;2023-02-08T22:29:49;102892.92;;;-4.14;100.00
61697;BME280;47610;52.252;20.922;2023-02-08T22:34:53;102882.54;;;-4.17;100.00
61697;BME280;47610;52.252;20.922;2023-02-08T22:39:58;102873.66;;;-4.18;100.00
61697;BME280;47610;52.252;20.922;2023-02-08T22:45:01;102865.48;;;-4.23;100.00
61697;BME280;47610;52.252;20.922;2023-02-08T22:50:07;102854.80;;;-4.31;100.00
61697;BME280;47610;52.252;20.922;2023-02-08T22:55:10;102849.55;;;-4.38;100.00
61697;BME280;47610;52.252;20.922;2023-02-08T23:00:16;102838.70;;;-4.46;100.00
61697;BME280;47610;52.252;20.922;2023-02-08T23:05:18;102836.94;;;-4.53;100.00
61697;BME280;47610;52.252;20.922;2023-02-08T23:18:47;102828.00;;;-4.70;100.00
61697;BME280;47610;52.252;20.922;2023-02-08T23:23:51;102822.05;;;-4.79;100.00
61697;BME280;47610;52.252;20.922;2023-02-08T23:28:56;102809.38;;;-4.87;100.00
61697;BME280;47610;52.252;20.922;2023-02-08T23:34:01;102806.24;;;-4.93;100.00
61697;BME280;47610;52.252;20.922;2023-02-08T23:39:06;102800.98;;;-4.97;100.00
61697;BME280;47610;52.252;20.922;2023-02-08T23:44:09;102795.30;;;-5.02;100.00
61697;BME280;47610;52.252;20.922;2023-02-08T23:49:12;102794.52;;;-5.07;100.00
61697;BME280;47610;52.252;20.922;2023-02-08T23:54:15;102789.41;;;-5.12;100.00
61697;BME280;47610;52.252;20.922;2023-02-08T23:59:18;102791.35;;;-5.16;100.00
